createdAt,value
2023-01-13T00:01:07.213Z,11.53
2023-01-13T00:03:34.240Z,11.61
2023-01-13T00:06:01.346Z,11.61
2023-01-13T00:08:30.859Z,11.53
2023-01-13T00:10:57.692Z,11.57
2023-01-13T00:13:29.810Z,11.42
2023-01-13T00:16:18.489Z,11.50
2023-01-13T00:18:46.804Z,11.52
2023-01-13T00:21:17.223Z,11.32
2023-01-13T00:23:47.285Z,11.29
2023-01-13T00:26:23.733Z,11.24
2023-01-13T00:28:51.309Z,11.27
2023-01-13T00:32:13.131Z,11.19
2023-01-13T00:34:39.989Z,11.22
2023-01-13T00:38:01.713Z,11.31
2023-01-13T00:44:32.215Z,10.97
2023-01-13T00:54:46.767Z,11.08
2023-01-13T00:57:17.393Z,11.06
2023-01-13T00:59:49.443Z,11.12
2023-01-13T01:02:16.810Z,11.14
2023-01-13T01:04:43.736Z,11.06
2023-01-13T01:07:10.644Z,11.07
2023-01-13T01:09:37.891Z,11.03
2023-01-13T01:12:09.366Z,11.06
2023-01-13T01:15:08.213Z,11.03
2023-01-13T01:17:42.584Z,10.95
2023-01-13T01:20:11.262Z,10.95
2023-01-13T01:22:44.239Z,10.91
2023-01-13T01:25:12.518Z,10.92
2023-01-13T01:27:40.743Z,10.89
2023-01-13T01:30:11.367Z,10.84
2023-01-13T01:32:38.287Z,10.83
2023-01-13T01:35:06.617Z,10.83
2023-01-13T01:37:33.655Z,10.83
2023-01-13T01:40:00.468Z,10.85
2023-01-13T01:42:28.795Z,10.80
2023-01-13T01:45:01.921Z,10.78
2023-01-13T01:47:32.351Z,10.79
2023-01-13T01:50:02.904Z,10.78
2023-01-13T01:52:36.637Z,10.81
2023-01-13T01:55:12.304Z,10.77
2023-01-13T01:57:47.576Z,10.74
2023-01-13T02:00:15.666Z,10.67
2023-01-13T02:02:48.064Z,10.68
2023-01-13T02:05:16.254Z,10.67
2023-01-13T02:07:47.138Z,10.66
2023-01-13T02:10:18.133Z,10.69
2023-01-13T02:12:47.993Z,10.66
2023-01-13T02:15:23.416Z,10.64
2023-01-13T02:18:21.332Z,10.60
2023-01-13T02:21:05.708Z,10.56
2023-01-13T02:24:09.231Z,10.56
2023-01-13T02:27:18.189Z,10.48
2023-01-13T02:30:07.831Z,10.46
2023-01-13T02:32:49.809Z,10.48
2023-01-13T02:35:26.921Z,10.46
2023-01-13T02:37:58.481Z,10.51
2023-01-13T02:40:34.378Z,10.51
2023-01-13T02:43:11.295Z,10.55
2023-01-13T02:45:48.845Z,10.51
2023-01-13T02:48:20.600Z,10.51
2023-01-13T02:50:55.522Z,10.52
2023-01-13T02:53:32.305Z,10.54
2023-01-13T02:56:04.822Z,10.56
2023-01-13T02:58:37.091Z,10.64
2023-01-13T03:01:05.833Z,10.68
2023-01-13T03:03:32.717Z,10.77
2023-01-13T03:06:22.955Z,10.78
2023-01-13T03:09:00.094Z,10.87
2023-01-13T03:11:39.035Z,10.88
2023-01-13T03:14:29.089Z,10.88
2023-01-13T03:17:21.582Z,10.93
2023-01-13T03:20:00.338Z,10.95
2023-01-13T03:22:36.780Z,10.98
2023-01-13T03:25:14.066Z,10.99
2023-01-13T03:27:53.019Z,11.00
2023-01-13T03:30:28.287Z,10.99
2023-01-13T03:33:04.801Z,10.99
2023-01-13T03:35:39.543Z,10.95
2023-01-13T03:38:14.702Z,10.94
2023-01-13T03:40:51.002Z,10.92
2023-01-13T03:43:27.850Z,10.91
2023-01-13T03:46:02.888Z,10.94
2023-01-13T03:48:38.737Z,10.98
2023-01-13T03:51:11.223Z,10.96
2023-01-13T03:53:47.627Z,10.94
2023-01-13T03:56:22.342Z,10.91
2023-01-13T03:58:52.731Z,10.96
2023-01-13T04:01:29.046Z,10.94
2023-01-13T04:04:06.009Z,10.95
2023-01-13T04:06:54.984Z,10.97
2023-01-13T04:09:34.024Z,10.99
2023-01-13T04:12:11.030Z,10.99
2023-01-13T04:14:39.883Z,10.97
2023-01-13T04:17:06.859Z,10.99
2023-01-13T04:19:35.144Z,10.97
2023-01-13T04:22:02.318Z,10.96
2023-01-13T04:24:29.193Z,10.92
2023-01-13T04:26:56.080Z,10.90
2023-01-13T04:29:22.900Z,10.90
2023-01-13T04:31:57.712Z,10.93
2023-01-13T04:34:34.692Z,10.87
2023-01-13T04:37:16.941Z,10.86
2023-01-13T04:39:43.867Z,10.86
2023-01-13T04:42:11.006Z,10.82
2023-01-13T04:44:37.991Z,10.86
2023-01-13T04:47:05.245Z,10.82
2023-01-13T04:49:32.351Z,10.84
2023-01-13T04:51:59.364Z,10.82
2023-01-13T04:54:27.515Z,10.83
2023-01-13T05:00:20.326Z,10.82
2023-01-13T05:05:35.796Z,10.83
2023-01-13T05:08:04.084Z,10.84
2023-01-13T05:10:32.531Z,10.88
2023-01-13T05:12:59.984Z,10.86
2023-01-13T05:15:29.362Z,10.87
2023-01-13T05:18:36.144Z,10.86
2023-01-13T05:21:04.335Z,10.85
2023-01-13T05:23:31.432Z,10.88
2023-01-13T05:26:01.888Z,10.87
2023-01-13T05:28:32.308Z,10.87
2023-01-13T05:30:59.995Z,10.87
2023-01-13T05:33:26.833Z,10.86
2023-01-13T05:35:53.719Z,10.77
2023-01-13T05:38:22.604Z,10.74
2023-01-13T05:40:55.711Z,10.74
2023-01-13T05:43:27.887Z,10.76
2023-01-13T05:45:58.945Z,10.82
2023-01-13T05:52:54.272Z,10.77
2023-01-13T05:55:21.175Z,10.76
2023-01-13T05:57:48.004Z,10.80
2023-01-13T06:00:19.921Z,10.79
2023-01-13T06:02:47.154Z,10.76
2023-01-13T06:05:14.216Z,10.73
2023-01-13T06:07:41.367Z,10.71
2023-01-13T06:10:10.262Z,10.74
2023-01-13T06:12:39.470Z,10.77
2023-01-13T06:15:07.749Z,10.75
2023-01-13T06:17:36.232Z,10.80
2023-01-13T06:20:03.751Z,10.82
2023-01-13T06:22:31.222Z,10.83
2023-01-13T06:24:58.920Z,10.79
2023-01-13T06:27:26.187Z,10.84
2023-01-13T06:29:53.069Z,10.87
2023-01-13T06:32:25.284Z,10.86
2023-01-13T06:35:05.262Z,10.82
2023-01-13T06:37:34.495Z,10.86
2023-01-13T06:40:06.189Z,10.83
2023-01-13T06:42:36.892Z,10.89
2023-01-13T06:45:04.656Z,10.91
2023-01-13T06:47:31.848Z,10.91
2023-01-13T06:50:00.072Z,10.93
2023-01-13T06:52:27.103Z,10.94
2023-01-13T06:54:53.976Z,10.98
2023-01-13T06:57:20.736Z,10.98
2023-01-13T06:59:47.514Z,11.02
2023-01-13T07:02:14.552Z,11.03
2023-01-13T07:04:41.540Z,11.06
2023-01-13T07:07:09.698Z,11.04
2023-01-13T07:09:36.542Z,11.06
2023-01-13T07:12:03.874Z,11.06
2023-01-13T07:14:30.770Z,11.04
2023-01-13T07:16:57.563Z,11.06
2023-01-13T07:19:24.482Z,11.06
2023-01-13T07:21:51.400Z,11.03
2023-01-13T07:24:20.556Z,10.99
2023-01-13T07:26:47.474Z,10.98
2023-01-13T07:29:14.352Z,10.99
2023-01-13T07:31:41.139Z,11.00
2023-01-13T07:34:08.078Z,11.01
2023-01-13T07:36:35.286Z,10.99
2023-01-13T07:39:03.745Z,10.98
2023-01-13T07:41:31.949Z,10.96
2023-01-13T07:43:59.193Z,10.97
2023-01-13T07:46:26.062Z,11.03
2023-01-13T07:48:53.056Z,11.00
2023-01-13T07:51:19.917Z,11.06
2023-01-13T07:53:46.998Z,11.02
2023-01-13T07:56:13.840Z,11.00
2023-01-13T07:58:42.113Z,11.01
2023-01-13T08:01:10.882Z,10.99
2023-01-13T08:03:38.369Z,10.97
2023-01-13T08:06:05.874Z,10.97
2023-01-13T08:08:32.900Z,10.99
2023-01-13T08:11:00.153Z,11.12
2023-01-13T08:13:26.999Z,11.15
2023-01-13T08:16:02.519Z,10.75
2023-01-13T08:18:30.799Z,10.62
2023-01-13T08:21:03.121Z,10.37
2023-01-13T08:23:30.334Z,10.17
2023-01-13T08:26:00.465Z,10.12
2023-01-13T08:28:28.611Z,10.07
2023-01-13T08:31:00.329Z,9.97
2023-01-13T08:33:27.239Z,9.83
2023-01-13T08:35:54.311Z,9.76
2023-01-13T08:38:21.190Z,9.69
2023-01-13T08:40:48.242Z,9.65
2023-01-13T08:43:15.495Z,9.61
2023-01-13T08:45:58.284Z,9.61
2023-01-13T08:48:33.676Z,9.56
2023-01-13T08:51:06.648Z,9.55
2023-01-13T08:53:33.911Z,9.62
2023-01-13T08:56:07.567Z,9.65
2023-01-13T08:58:34.437Z,9.67
2023-01-13T09:01:07.231Z,9.72
2023-01-13T09:03:34.674Z,9.76
2023-01-13T09:06:01.539Z,9.79
2023-01-13T09:08:28.364Z,9.75
2023-01-13T09:10:55.461Z,9.80
2023-01-13T09:13:22.535Z,9.83
2023-01-13T09:15:49.735Z,9.82
2023-01-13T09:18:18.170Z,9.86
2023-01-13T09:20:45.331Z,9.80
2023-01-13T09:23:12.094Z,9.83
2023-01-13T09:25:39.053Z,9.93
2023-01-13T09:28:07.147Z,9.96
2023-01-13T09:30:33.950Z,9.98
2023-01-13T09:33:01.062Z,10.05
2023-01-13T09:35:29.266Z,10.13
2023-01-13T09:37:56.106Z,10.10
2023-01-13T09:40:24.341Z,10.10
2023-01-13T09:43:00.073Z,10.16
2023-01-13T09:45:33.767Z,10.20
2023-01-13T09:48:13.040Z,10.23
2023-01-13T09:51:02.911Z,10.28
2023-01-13T09:53:38.182Z,10.30
2023-01-13T09:56:06.190Z,10.41
2023-01-13T09:58:33.562Z,10.53
2023-01-13T10:01:20.500Z,10.57
2023-01-13T10:03:47.469Z,11.00
2023-01-13T10:06:21.804Z,11.02
2023-01-13T10:08:50.361Z,10.88
2023-01-13T10:11:20.727Z,10.80
2023-01-13T10:13:52.260Z,10.94
2023-01-13T10:16:33.480Z,11.03
2023-01-13T10:19:11.126Z,10.93
2023-01-13T10:22:23.206Z,11.21
2023-01-13T10:25:22.020Z,11.40
2023-01-13T10:27:53.539Z,12.52
2023-01-13T10:30:24.924Z,12.75
2023-01-13T10:32:57.782Z,12.41
2023-01-13T10:35:53.428Z,12.19
2023-01-13T10:38:25.830Z,12.12
2023-01-13T10:40:55.275Z,11.89
2023-01-13T10:43:23.452Z,11.71
2023-01-13T10:46:02.353Z,11.56
2023-01-13T10:48:41.283Z,11.12
2023-01-13T10:51:21.263Z,11.01
2023-01-13T10:53:58.772Z,10.76
2023-01-13T10:56:30.048Z,10.77
2023-01-13T10:59:23.195Z,10.68
2023-01-13T11:02:01.175Z,10.73
2023-01-13T11:04:34.901Z,10.80
2023-01-13T11:07:03.888Z,10.86
2023-01-13T11:09:33.291Z,10.94
2023-01-13T11:12:00.477Z,10.91
2023-01-13T11:14:39.088Z,10.68
2023-01-13T11:17:30.711Z,10.71
2023-01-13T11:20:15.536Z,10.67
2023-01-13T11:22:47.794Z,10.74
2023-01-13T11:25:23.585Z,10.81
2023-01-13T11:27:58.670Z,10.86
2023-01-13T11:30:36.857Z,11.12
2023-01-13T11:33:30.703Z,11.43
2023-01-13T11:36:10.909Z,11.48
2023-01-13T11:38:46.419Z,11.48
2023-01-13T11:41:27.258Z,11.67
2023-01-13T11:44:03.662Z,11.62
2023-01-13T11:46:30.832Z,11.29
2023-01-13T11:48:59.462Z,11.46
2023-01-13T11:51:38.425Z,12.59
2023-01-13T11:54:53.282Z,12.45
2023-01-13T11:57:43.925Z,12.47
2023-01-13T12:00:31.699Z,13.56
2023-01-13T12:03:22.011Z,13.85
2023-01-13T12:06:08.190Z,16.02
2023-01-13T12:09:03.623Z,15.40
2023-01-13T12:11:42.088Z,15.06
2023-01-13T12:14:30.898Z,15.32
2023-01-13T12:17:01.426Z,13.87
2023-01-13T12:19:31.295Z,13.11
2023-01-13T12:22:11.396Z,13.28
2023-01-13T12:24:49.061Z,13.63
2023-01-13T12:27:25.451Z,13.21
2023-01-13T12:29:57.650Z,12.50
2023-01-13T12:32:34.358Z,12.00
2023-01-13T12:35:23.353Z,11.71
2023-01-13T12:38:01.838Z,11.20
2023-01-13T12:40:46.813Z,10.87
2023-01-13T12:43:18.823Z,10.35
2023-01-13T12:45:47.044Z,10.20
2023-01-13T12:49:05.353Z,10.22
2023-01-13T12:51:35.455Z,11.46
2023-01-13T12:54:25.053Z,12.29
2023-01-13T12:56:53.311Z,11.90
2023-01-13T12:59:44.162Z,13.22
2023-01-13T13:02:34.347Z,14.51
2023-01-13T13:05:46.126Z,14.49
2023-01-13T13:08:29.899Z,14.78
2023-01-13T13:11:34.776Z,13.63
2023-01-13T13:14:04.959Z,12.99
2023-01-13T13:16:49.320Z,12.30
2023-01-13T13:19:46.819Z,11.83
2023-01-13T13:22:37.112Z,11.80
2023-01-13T13:25:26.551Z,11.80
2023-01-13T13:28:17.442Z,11.73
2023-01-13T13:31:05.732Z,11.55
2023-01-13T13:33:56.134Z,11.57
2023-01-13T13:37:02.089Z,11.69
2023-01-13T13:39:33.640Z,11.73
2023-01-13T13:42:12.731Z,11.47
2023-01-13T13:44:45.848Z,11.25
2023-01-13T13:47:12.993Z,11.00
2023-01-13T13:49:43.162Z,10.89
2023-01-13T13:52:20.795Z,10.63
2023-01-13T13:54:52.271Z,10.55
2023-01-13T13:57:26.849Z,10.30
2023-01-13T13:59:58.595Z,10.20
2023-01-13T14:02:30.115Z,10.18
2023-01-13T14:05:19.783Z,10.06
2023-01-13T14:07:51.755Z,10.03
2023-01-13T14:10:22.767Z,10.00
2023-01-13T14:12:49.642Z,9.97
2023-01-13T14:15:33.773Z,10.56
2023-01-13T14:18:05.267Z,11.57
2023-01-13T14:20:33.167Z,12.25
2023-01-13T14:23:01.579Z,12.36
2023-01-13T14:25:32.201Z,12.08
2023-01-13T14:28:13.941Z,11.38
2023-01-13T14:30:42.258Z,10.64
2023-01-13T14:33:16.255Z,10.49
2023-01-13T14:36:11.884Z,10.29
2023-01-13T14:38:41.129Z,10.16
2023-01-13T14:41:28.093Z,10.00
2023-01-13T14:43:59.346Z,9.95
2023-01-13T14:46:38.081Z,9.84
2023-01-13T14:49:05.468Z,9.69
2023-01-13T14:51:32.309Z,9.68
2023-01-13T14:54:00.520Z,9.71
2023-01-13T14:56:49.770Z,9.67
2023-01-13T14:59:35.989Z,9.70
2023-01-13T15:02:41.060Z,9.61
2023-01-13T15:05:34.483Z,9.59
2023-01-13T15:08:17.480Z,9.55
2023-01-13T15:10:49.220Z,9.46
2023-01-13T15:13:27.471Z,9.42
2023-01-13T15:15:58.439Z,9.39
2023-01-13T15:18:27.406Z,9.40
2023-01-13T15:20:54.183Z,9.38
2023-01-13T15:23:21.476Z,9.34
2023-01-13T15:25:49.192Z,9.30
2023-01-13T15:28:20.064Z,9.28
2023-01-13T15:30:47.598Z,9.25
2023-01-13T15:33:16.147Z,9.24
2023-01-13T15:35:47.654Z,9.23
2023-01-13T15:38:18.018Z,9.20
2023-01-13T15:40:46.272Z,9.11
2023-01-13T15:43:16.697Z,9.04
2023-01-13T15:45:45.881Z,8.99
2023-01-13T15:48:13.774Z,8.92
2023-01-13T15:50:40.552Z,8.89
2023-01-13T15:53:14.381Z,8.89
2023-01-13T15:55:44.864Z,8.88
2023-01-13T15:58:13.843Z,8.86
2023-01-13T16:00:41.180Z,8.82
2023-01-13T16:03:12.858Z,8.76
2023-01-13T16:05:39.882Z,8.74
2023-01-13T16:08:14.891Z,8.74
2023-01-13T16:10:42.926Z,8.74
2023-01-13T16:13:09.770Z,8.73
2023-01-13T16:15:40.633Z,8.74
2023-01-13T16:18:07.563Z,8.75
2023-01-13T16:20:34.423Z,8.71
2023-01-13T16:23:01.291Z,8.72
2023-01-13T16:25:29.693Z,8.68
2023-01-13T16:27:56.613Z,8.66
2023-01-13T16:30:31.218Z,8.66
2023-01-13T16:32:59.172Z,8.64
2023-01-13T16:35:26.772Z,8.58
2023-01-13T16:37:53.976Z,8.61
2023-01-13T16:40:27.074Z,8.58
2023-01-13T16:42:56.762Z,8.60
2023-01-13T16:45:24.903Z,8.54
2023-01-13T16:47:52.024Z,8.54
2023-01-13T16:50:33.629Z,8.54
2023-01-13T16:53:00.479Z,8.55
2023-01-13T16:55:27.794Z,8.51
2023-01-13T16:57:56.483Z,8.52
2023-01-13T17:00:24.140Z,8.49
2023-01-13T17:02:51.039Z,8.50
2023-01-13T17:05:18.400Z,8.48
2023-01-13T17:07:47.846Z,8.45
2023-01-13T17:10:19.138Z,8.49
2023-01-13T17:12:46.016Z,8.56
2023-01-13T17:15:18.760Z,8.58
2023-01-13T17:17:47.672Z,8.62
2023-01-13T17:20:16.022Z,8.59
2023-01-13T17:22:45.657Z,8.67
2023-01-13T17:25:14.416Z,8.72
2023-01-13T17:27:41.346Z,8.75
2023-01-13T17:30:11.218Z,8.80
2023-01-13T17:32:39.430Z,8.83
2023-01-13T17:35:07.823Z,8.85
2023-01-13T17:37:35.311Z,8.87
2023-01-13T17:40:02.165Z,8.93
2023-01-13T17:42:29.013Z,8.98
2023-01-13T17:44:55.865Z,8.93
2023-01-13T17:47:22.703Z,8.92
2023-01-13T17:49:50.812Z,8.89
2023-01-13T17:52:17.619Z,8.89
2023-01-13T17:54:44.344Z,8.86
2023-01-13T17:57:11.195Z,8.86
2023-01-13T17:59:38.163Z,8.89
2023-01-13T18:02:05.288Z,8.88
2023-01-13T18:04:32.442Z,8.86
2023-01-13T18:07:00.761Z,8.91
2023-01-13T18:09:27.561Z,8.93
2023-01-13T18:11:54.437Z,8.90
2023-01-13T18:14:21.338Z,8.96
2023-01-13T18:16:48.316Z,9.00
2023-01-13T18:19:15.322Z,9.01
2023-01-13T18:21:43.507Z,9.04
2023-01-13T18:24:14.016Z,8.99
2023-01-13T18:26:40.990Z,9.03
2023-01-13T18:29:07.844Z,9.04
2023-01-13T18:31:34.740Z,9.09
2023-01-13T18:34:01.561Z,9.12
2023-01-13T18:36:28.363Z,9.16
2023-01-13T18:38:55.684Z,9.17
2023-01-13T18:41:23.907Z,9.18
2023-01-13T18:43:50.765Z,9.16
2023-01-13T18:46:17.668Z,9.20
2023-01-13T18:48:44.480Z,9.20
2023-01-13T18:51:11.311Z,9.15
2023-01-13T18:53:38.160Z,9.18
2023-01-13T18:56:09.367Z,9.19
2023-01-13T18:58:39.287Z,9.16
2023-01-13T19:01:06.367Z,9.17
2023-01-13T19:03:33.214Z,9.17
2023-01-13T19:06:03.143Z,9.16
2023-01-13T19:08:30.392Z,9.16
2023-01-13T19:10:57.113Z,9.10
2023-01-13T19:13:23.991Z,9.04
2023-01-13T19:15:52.165Z,8.93
2023-01-13T19:18:19.310Z,8.88
2023-01-13T19:20:46.312Z,8.89
2023-01-13T19:23:13.141Z,8.83
2023-01-13T19:25:39.997Z,8.83
2023-01-13T19:28:07.215Z,8.83
2023-01-13T19:30:33.980Z,8.82
2023-01-13T19:33:02.279Z,8.79
2023-01-13T19:35:29.973Z,8.77
2023-01-13T19:37:56.885Z,8.74
2023-01-13T19:40:23.805Z,8.78
2023-01-13T19:42:50.663Z,8.72
2023-01-13T19:45:17.625Z,8.71
2023-01-13T19:47:45.838Z,8.74
2023-01-13T19:50:14.577Z,8.68
2023-01-13T19:52:42.421Z,8.63
2023-01-13T19:55:10.756Z,8.63
2023-01-13T19:57:39.531Z,8.65
2023-01-13T20:00:08.997Z,8.64
2023-01-13T20:02:41.633Z,8.64
2023-01-13T20:05:09.730Z,8.63
2023-01-13T20:07:38.013Z,8.64
2023-01-13T20:10:06.780Z,8.65
2023-01-13T20:12:33.678Z,8.63
2023-01-13T20:15:00.815Z,8.61
2023-01-13T20:17:27.798Z,8.60
2023-01-13T20:19:54.944Z,8.59
2023-01-13T20:22:22.038Z,8.61
2023-01-13T20:24:50.444Z,8.61
2023-01-13T20:27:17.430Z,8.58
2023-01-13T20:29:44.208Z,8.62
2023-01-13T20:32:10.983Z,8.61
2023-01-13T20:34:38.180Z,8.60
2023-01-13T20:37:04.947Z,8.58
2023-01-13T20:39:32.109Z,8.49
2023-01-13T20:42:00.369Z,8.50
2023-01-13T20:44:27.674Z,8.41
2023-01-13T20:46:55.019Z,8.36
2023-01-13T20:49:22.226Z,8.35
2023-01-13T20:51:49.484Z,8.35
2023-01-13T20:54:16.762Z,8.32
2023-01-13T20:56:44.128Z,8.32
2023-01-13T20:59:12.926Z,8.32
2023-01-13T21:01:40.193Z,8.36
2023-01-13T21:04:08.163Z,8.38
2023-01-13T21:06:35.699Z,8.47
2023-01-13T21:09:02.875Z,8.48
2023-01-13T21:11:29.796Z,8.41
2023-01-13T21:13:56.626Z,8.43
2023-01-13T21:16:24.858Z,8.45
2023-01-13T21:18:51.689Z,8.45
2023-01-13T21:21:18.859Z,8.41
2023-01-13T21:23:45.712Z,8.41
2023-01-13T21:26:12.963Z,8.42
2023-01-13T21:28:40.057Z,8.39
2023-01-13T21:31:09.537Z,8.41
2023-01-13T21:33:38.381Z,8.44
2023-01-13T21:36:06.174Z,8.44
2023-01-13T21:38:33.658Z,8.44
2023-01-13T21:41:03.756Z,8.89
2023-01-13T21:43:30.848Z,8.77
2023-01-13T21:45:57.906Z,8.66
2023-01-13T21:48:24.810Z,8.56
2023-01-13T21:50:53.308Z,8.59
2023-01-13T21:53:20.199Z,8.70
2023-01-13T21:55:50.871Z,8.78
2023-01-13T21:58:17.814Z,9.01
2023-01-13T22:00:45.458Z,8.82
2023-01-13T22:03:13.192Z,8.55
2023-01-13T22:05:40.808Z,8.33
2023-01-13T22:08:12.671Z,8.58
2023-01-13T22:10:39.582Z,8.54
2023-01-13T22:13:06.283Z,8.52
2023-01-13T22:15:33.086Z,8.55
2023-01-13T22:17:59.945Z,8.47
2023-01-13T22:20:27.114Z,8.53
2023-01-13T22:22:54.045Z,8.50
2023-01-13T22:25:22.172Z,8.48
2023-01-13T22:27:48.949Z,8.47
2023-01-13T22:30:19.045Z,8.47
2023-01-13T22:32:46.951Z,8.50
2023-01-13T22:35:15.724Z,8.50
2023-01-13T22:37:43.055Z,8.46
2023-01-13T22:40:12.248Z,8.49
2023-01-13T22:42:42.374Z,8.53
2023-01-13T22:45:13.284Z,8.60
2023-01-13T22:47:40.488Z,8.52
2023-01-13T22:50:09.696Z,8.39
2023-01-13T22:52:36.591Z,8.32
2023-01-13T22:55:04.208Z,8.28
2023-01-13T22:57:35.905Z,8.34
2023-01-13T23:00:12.435Z,8.32
2023-01-13T23:02:39.474Z,8.22
2023-01-13T23:05:07.093Z,8.12
2023-01-13T23:07:33.887Z,8.05
2023-01-13T23:10:00.834Z,8.01
2023-01-13T23:12:27.716Z,7.98
2023-01-13T23:14:54.497Z,7.99
2023-01-13T23:17:22.649Z,7.98
2023-01-13T23:19:49.533Z,7.99
2023-01-13T23:22:16.546Z,8.03
2023-01-13T23:24:43.695Z,8.07
2023-01-13T23:27:10.703Z,8.08
2023-01-13T23:29:37.621Z,8.11
2023-01-13T23:32:05.420Z,8.18
2023-01-13T23:34:33.671Z,8.16
2023-01-13T23:37:00.519Z,8.14
2023-01-13T23:39:27.330Z,8.19
2023-01-13T23:41:54.204Z,8.18
2023-01-13T23:44:21.111Z,8.30
2023-01-13T23:46:48.564Z,8.27
2023-01-13T23:49:15.516Z,8.29
2023-01-13T23:51:43.696Z,8.32
2023-01-13T23:54:10.558Z,8.34
2023-01-13T23:56:38.284Z,8.39
2023-01-13T23:59:05.219Z,8.38
